Wednesday, June 20, 2018, 11:00 AM EDT
Back to Local

KMMU, Morristown Municipal

Location: Morristown, NJ, United States Lat: 40.8
Local Time: 11:00 AM EDT (15:00 GMT) Lon: -74.417
Time Zone: US/Eastern Elev: 187 ft

Show me the last for .
Show Decoded

2018-06-20 10:15 METAR KMMU 201415Z 04005KT 15SM BKN120 22/15 A2991 =
2018-06-20 09:45 METAR KMMU 201345Z 04005KT 15SM BKN120 22/15 A2991 =
2018-06-20 08:45 METAR KMMU 201245Z 04005KT 15SM SCT120 21/15 A2992 =
2018-06-20 07:45 METAR KMMU 201145Z 04004KT 10SM BKN150 BKN250 19/15 A2992 =
2018-06-20 06:46 METAR KMMU 201046Z 00000KT 10SM BKN150 BKN250 18/16 A2992 =
2018-06-20 06:45 METAR KMMU 201045Z 00000KT 10SM BKN150 BKN250 18/16 A2992 =
2018-06-20 06:35 METAR KMMU 201035Z AUTO 00000KT 10SM CLR 17/16 A2991 RMK AO2 =
2018-06-20 06:15 METAR KMMU 201015Z AUTO 00000KT 10SM CLR 17/16 A2992 RMK AO2 =
2018-06-20 05:55 METAR KMMU 200955Z AUTO 00000KT 10SM CLR 16/15 A2991 RMK AO2 =
2018-06-20 05:35 METAR KMMU 200935Z AUTO 00000KT 10SM CLR 16/15 A2991 RMK AO2 =
2018-06-20 05:15 METAR KMMU 200915Z AUTO 00000KT 10SM CLR 16/15 A2990 RMK AO2 =
2018-06-20 04:55 METAR KMMU 200855Z AUTO 00000KT 10SM CLR 16/15 A2990 RMK AO2 =
2018-06-20 04:35 METAR KMMU 200835Z AUTO 36003KT 10SM CLR 17/16 A2990 RMK AO2 =
2018-06-20 04:15 METAR KMMU 200815Z AUTO 00000KT 10SM CLR 17/15 A2989 RMK AO2 =
2018-06-20 03:55 METAR KMMU 200755Z AUTO 00000KT 10SM CLR 17/16 A2989 RMK AO2 =
2018-06-20 03:35 METAR KMMU 200735Z AUTO 00000KT 10SM CLR 17/16 A2989 RMK AO2 =
2018-06-20 03:15 METAR KMMU 200715Z AUTO 00000KT 10SM CLR 17/16 A2989 RMK AO2 =
2018-06-20 02:55 METAR KMMU 200655Z AUTO 00000KT 10SM CLR 17/16 A2989 RMK AO2 =
2018-06-20 02:35 METAR KMMU 200635Z AUTO 00000KT 10SM CLR 17/15 A2989 RMK AO2 =
2018-06-20 02:15 METAR KMMU 200615Z AUTO 00000KT 10SM CLR 17/15 A2989 RMK AO2 =
2018-06-20 01:55 METAR KMMU 200555Z AUTO 00000KT 10SM CLR 17/15 A2989 RMK AO2 =
2018-06-20 01:35 METAR KMMU 200535Z AUTO 00000KT 10SM CLR 17/15 A2989 RMK AO2 =
2018-06-20 01:15 METAR KMMU 200515Z AUTO 00000KT 10SM CLR 18/15 A2989 RMK AO2 =
2018-06-20 00:55 METAR KMMU 200455Z AUTO 00000KT 10SM CLR 18/15 A2989 RMK AO2 =
2018-06-20 00:35 METAR KMMU 200435Z AUTO 00000KT 10SM CLR 18/16 A2989 RMK AO2 =
2018-06-20 00:15 METAR KMMU 200415Z AUTO 00000KT 10SM CLR 18/15 A2988 RMK AO2 =
2018-06-19 23:55 METAR KMMU 200355Z AUTO 00000KT 10SM CLR 18/14 A2989 RMK AO2 =
2018-06-19 23:35 METAR KMMU 200335Z AUTO 00000KT 10SM CLR 18/14 A2988 RMK AO2 =
2018-06-19 23:15 METAR KMMU 200315Z AUTO 00000KT 10SM CLR 19/14 A2988 RMK AO2 =
2018-06-19 22:55 METAR KMMU 200255Z AUTO 00000KT 10SM CLR 19/13 A2988 RMK AO2 =
2018-06-19 22:35 METAR KMMU 200235Z AUTO 10003KT 10SM CLR 21/12 A2988 RMK AO2 =
2018-06-19 22:15 METAR KMMU 200215Z AUTO 00000KT 10SM CLR 23/11 A2988 RMK AO2 =
2018-06-19 21:45 METAR KMMU 200145Z 33003KT 10SM FEW100 21/13 A2988 =
2018-06-19 20:45 METAR KMMU 200045Z 36003KT 10SM FEW100 24/11 A2985 =
2018-06-19 19:45 METAR KMMU 192345Z 34005KT 10SM FEW250 27/11 A2983 =
2018-06-19 18:45 METAR KMMU 192245Z 36006KT 10SM FEW250 28/12 A2982 =
2018-06-19 17:50 METAR KMMU 192150Z 34006KT 10SM FEW250 29/13 A2981 =
2018-06-19 16:46 METAR KMMU 192046Z 02007G14KT 10SM FEW250 29/14 A2982 =
2018-06-19 16:45 METAR KMMU 192045Z 35009G16KT 02007G14 10SM FEW250 29/14 A2982 =
2018-06-19 15:45 METAR KMMU 191945Z 35009G16KT 330V030 10SM SCT250 30/14 A2981 =
2018-06-19 14:45 METAR KMMU 191845Z 30006G15KT 10SM SCT250 29/15 A2981 =
2018-06-19 13:45 METAR KMMU 191745Z 35008G15KT 10SM FEW050 SCT250 29/15 A2982 =
2018-06-19 12:45 METAR KMMU 191645Z 03009G15KT 10SM FEW050 FEW090 SCT250 28/16 A2982 =
2018-06-19 11:45 METAR KMMU 191545Z 33009G16KT 10SM SCT036 SCT250 28/18 A2982 =

Support USWX by starting your Amazon purchase here.